Warning: Javascript must be enabled to use all the features on this page!


Page Loading - Please Wait...

Click to hideNews Bulletins
  • Have your voice heard. Have a few minutes? We're surveying users about their experience with Water Data for the Nation (WDFN). Please take a few minutes to complete our online survey.
  • See the Water Data for the Nation Blog for the latest news and updates.

Peak Streamflow for the Nation

USGS 10172700 VERNON CREEK NEAR VERNON, UT

Tooele County, Utah
Hydrologic Unit Code 16020304
Latitude  39°58'46", Longitude 112°22'46" NAD27
Drainage area 25.0  square miles
Gage datum 6,207.07 feet above NAVD88
Output formats
Table
Graph
Tab-separated file
peakfq (watstore) format
Reselect output format
Water
Year
Date Gage
Height
(feet)
Stream-
flow
(cfs)
1959 1959-03-23 0.57 2.00
1960 1960-05-15   3.401
1961 1961-09-17 1.46 41.0
1962 1962-04-14 1.82 78.0
1963 1963-02-01 0.80 7.00
1964 1964-05-28 1.51 38.0
1965 1965-04-22 1.27 23.0
1966 1965-11-17 0.78 5.00
1967 1967-06-10 0.87 7.00
1968 1968-08-08 2.80 210
1969 1969-04-04 1.53 41.0
1970 1969-11-19 0.97 8.00
1971 1971-07-19 1.30 16.0
1972 1972-08-27 5.70 825
1973 1973-05-03 1.95 92.0
1974 1973-10-08 1.04 5.20
1975 1975-05-03 1.50 33.0
1976 1975-11-29 1.10 5.80
1977 1977-08-24 1.05 2.90
1978 1978-04-11 1.85 73.0
1979 1979-04-17 1.54 39.0
1980 1980-04-20 2.04 95.0
1981 1981-05-28 1.71 72.0
1982 1982-04-12 1.522 31.0
1983 1983-05-08 2.14 98.0
1984 1984-04-24 2.10 96.0
1985 1985-04-09 1.75 54.0
1986 1986-04-02 1.48 25.0
1987 1987-03-08 1.43 23.0
1988 1987-11-01 1.09 6.40
1989 1989-07-12 1.24 14.0
1990 1990-04-08 0.98 3.90
1991 1991-08-24 4.38 470
1992 1991-10-27 0.98 3.00
1993 1993-04-17 1.35 21.0
1994 1994-08-14 1.13 7.10
1995 1995-05-12 1.232 12.1
1996 1996-06-15   3.601
1997 1997-06-15 1.33 18.0
1998 1998-04-23 2.22 100
1999 1999-09-19 1.40 23.0
2000 2000-05-24 1.21 8.00
2001 2001-08-21 1.22 9.00
2002 2002-09-06 2.04 80.1
2003 2003-03-10 1.27 14.0
2004 2004-04-07 1.46 27.0
2005 2005-07-19 1.96 70.0
2006 2006-03-29 2.16 50.0
2007 2007-08-28 1.46 16.0
2008 2008-08-07 1.58 21.0
2009 2009-05-02 1.24 8.70
2010 2010-08-18 1.14 5.90
2011 2011-04-18 2.15 48.0
2012 2012-03-15 2.09 47.0
2013 2013-08-31 2.40 69.0
2014 2014-03-01 1.62 22.0
2015 2015-05-06 1.14 5.40
2016 2015-10-18 1.14 3.00
2017 2017-02-11 1.512 9.09
2018 2018-08-22 1.342 10.0
2019 2019-04-21 1.80 30.3
2020 2019-12-04 1.032 2.97
2021 2021-08-18 1.83 35.3
?
  Peak Gage-Height Qualification Codes.
?
  Peak Streamflow Qualification Codes.